Syracuse Hancock International Airport
KSYR : now visible

Airfield :











YOU CAN JOIN US ON...

 
LOGIN :

Register | Disclaimer

   EN    FR    IT 

 









Legend :    VFR   Marginal VFR   IFR   Intensive IFR   Very Intensive IFR
Visi :
Ceiling :
>= 8 km
>= 3000ft
5 to 8 km
1000 to 3000 ft
1500m to 5 km
500 to 1000 ft
800 to 1500m
200 to 500 ft
< 800m
< 200 ft
Symbols :   Thunderstorms  Fog  Heavy snow  Heavy precipitations  Wind > 20 kt






- Airport Elevation : 421 ft
- IATA code : SYR


KSYR - Syracuse Hancock International

CURRENT METAR :
  • 012254Z 23007KT 10SM SCT080 BKN120 BKN190 28/17 A2985 RMK AO2 SLP102 T02830167

EXPIRED METARs :
  • 011554Z 23009G19KT 10SM SCT100 SCT200 BKN240 30/16 A2993 RMK AO2 SLP129 T03000156
  • 012154Z 27011KT 10SM SCT080 SCT130 BKN190 BKN250 30/14 A2985 RMK AO2 SLP102 T03000139
  • 012054Z 24006KT 10SM FEW080 SCT095 SCT130 BKN180 BKN250 31/16 A2985 RMK AO2 SLP103 T03060156 56018

TAF KSYR
Valid from the 01 at 18:00 until the 02 at 18:00 UTC


011722Z 0118/0218 27010G16KT P6SM FEW070 BKN200
FM020300 25004KT P6SM -SHRA BKN050
FM020800 23005KT P6SM -SHRA OVC024
FM021200 26007KT P6SM BKN040
FM021600 28009G16KT P6SM SCT090
KZBW FIR / North America



MET'MAP, your aeronautical weather chart ! - Copyright ORBIFLY December 2007 - Disclaimer

ORBIFLY MET'MAP TEAM :

Programming & Development : Alexandra Zaïnal
Original concept : Baudouin d'Aumeries
Technical & hardware support : Manuel Goepfert
Assistance : Marc-Olivier Méhu




SOURCES & CREDITS :

   NOAA       Earth
Advisory